Time;durP1;ratioP1;P1;durP2;ratioP2;P2;SDS_P1;SDS_P2;PMS_P1;PMS_P2;Temp;Humidity;BMP_temperature;BMP_pressure;BME280_temperature;BME280_humidity;BME280_pressure;Samples;Min_cycle;Max_cycle;Signal;HPM_P1;HPM_P2
2022/06/26 00:02:07;;;;;;;17.83;8.43;;;14.50;99.90;;;;;;5046174;28;20534;-61
2022/06/26 00:04:36;;;;;;;16.93;8.20;;;14.50;99.90;;;;;;5048353;28;20203;-60
2022/06/26 00:07:05;;;;;;;18.40;7.83;;;14.50;99.90;;;;;;5046451;28;20215;-60
2022/06/26 00:09:33;;;;;;;15.50;7.20;;;14.50;99.90;;;;;;5047655;28;20211;-61
2022/06/26 00:12:02;;;;;;;15.30;7.73;;;14.50;99.90;;;;;;5046749;28;20204;-61
2022/06/26 00:14:30;;;;;;;14.60;7.57;;;14.50;99.90;;;;;;5047508;28;20191;-60
2022/06/26 00:17:00;;;;;;;14.10;7.77;;;14.50;99.90;;;;;;5045616;28;20291;-61
2022/06/26 00:19:28;;;;;;;15.70;7.37;;;14.50;99.90;;;;;;5047181;28;20193;-61
2022/06/26 00:21:57;;;;;;;12.93;7.60;;;14.50;99.90;;;;;;5077777;28;20279;-61
2022/06/26 00:24:25;;;;;;;17.07;7.63;;;14.50;99.90;;;;;;5049260;28;20192;-61
2022/06/26 00:26:53;;;;;;;12.73;7.40;;;14.50;99.90;;;;;;5079394;28;20200;-61
2022/06/26 00:29:22;;;;;;;12.07;6.73;;;14.50;99.90;;;;;;5045687;28;20273;-61
2022/06/26 00:31:50;;;;;;;13.83;7.30;;;14.50;99.90;;;;;;5045487;28;20284;-61
2022/06/26 00:34:20;;;;;;;14.03;7.17;;;14.40;99.90;;;;;;5049564;28;20216;-61
2022/06/26 00:36:49;;;;;;;21.70;7.33;;;14.40;99.90;;;;;;5074437;28;20636;-61
2022/06/26 00:39:17;;;;;;;12.73;6.63;;;14.40;99.90;;;;;;5047324;28;20276;-61
2022/06/26 00:41:46;;;;;;;15.30;6.63;;;14.40;99.90;;;;;;5045980;28;20228;-61
2022/06/26 00:44:15;;;;;;;12.77;6.90;;;14.40;99.90;;;;;;5044327;28;20399;-61
2022/06/26 00:46:44;;;;;;;20.20;7.00;;;14.40;99.90;;;;;;5044632;28;20193;-61
2022/06/26 00:49:13;;;;;;;9.77;6.37;;;14.40;99.90;;;;;;5045887;28;21208;-60
2022/06/26 00:51:47;;;;;;;10.23;6.30;;;14.40;99.90;;;;;;5046695;28;20268;-61
2022/06/26 00:54:16;;;;;;;9.30;6.37;;;14.40;99.90;;;;;;5078994;28;20204;-61
2022/06/26 00:56:44;;;;;;;12.40;6.60;;;14.40;99.90;;;;;;5045346;28;20193;-61
2022/06/26 00:59:14;;;;;;;11.47;6.53;;;14.40;99.90;;;;;;5047942;28;20216;-61
2022/06/26 01:01:43;;;;;;;10.73;6.47;;;14.30;99.90;;;;;;5043386;28;20181;-60
2022/06/26 01:04:11;;;;;;;8.57;6.40;;;14.30;99.90;;;;;;5047033;28;20653;-61
2022/06/26 01:06:40;;;;;;;12.97;5.97;;;14.40;99.90;;;;;;5047952;28;20779;-61
2022/06/26 01:09:11;;;;;;;12.83;6.33;;;14.40;99.90;;;;;;5045150;28;20223;-61
2022/06/26 01:11:40;;;;;;;7.73;6.23;;;14.30;99.90;;;;;;5046128;28;20295;-61
2022/06/26 01:14:09;;;;;;;11.23;6.17;;;14.40;99.90;;;;;;5049257;28;20276;-61
2022/06/26 01:16:38;;;;;;;13.03;6.70;;;14.40;99.90;;;;;;5048397;28;21139;-61
2022/06/26 01:19:10;;;;;;;11.57;6.33;;;14.40;99.90;;;;;;5046902;28;20227;-61
2022/06/26 01:21:39;;;;;;;9.37;5.90;;;14.30;99.90;;;;;;5048059;28;20196;-61
2022/06/26 01:24:09;;;;;;;9.30;6.23;;;14.30;99.90;;;;;;5047445;28;20203;-61
2022/06/26 01:26:39;;;;;;;10.60;6.40;;;14.30;99.90;;;;;;5046506;28;20520;-61
2022/06/26 01:29:08;;;;;;;8.93;6.50;;;14.30;99.90;;;;;;5049624;28;20212;-61
2022/06/26 01:31:36;;;;;;;10.33;7.00;;;14.30;99.90;;;;;;5047949;28;20280;-61
2022/06/26 01:34:07;;;;;;;11.77;6.70;;;14.20;99.90;;;;;;5046120;28;20266;-60
2022/06/26 01:36:37;;;;;;;9.03;6.83;;;14.20;99.90;;;;;;5045673;28;20196;-61
2022/06/26 01:39:06;;;;;;;12.67;6.70;;;14.20;99.90;;;;;;5051765;28;20267;-61
2022/06/26 01:41:36;;;;;;;9.40;6.97;;;14.20;99.90;;;;;;5049640;28;20656;-61
2022/06/26 01:44:07;;;;;;;9.80;7.33;;;14.20;99.90;;;;;;5082285;28;20280;-61
2022/06/26 01:46:36;;;;;;;10.00;6.77;;;14.20;99.90;;;;;;5049244;28;20241;-60
2022/06/26 01:49:04;;;;;;;10.07;6.53;;;14.20;99.90;;;;;;5048590;28;20212;-60
2022/06/26 01:51:33;;;;;;;13.50;7.53;;;14.10;99.90;;;;;;5047812;28;20193;-60
2022/06/26 01:54:01;;;;;;;8.33;6.80;;;14.10;99.90;;;;;;5049743;28;20193;-61
2022/06/26 01:56:29;;;;;;;10.30;7.23;;;14.10;99.90;;;;;;5047433;28;20197;-61
2022/06/26 01:58:59;;;;;;;15.37;7.10;;;14.10;99.90;;;;;;5049168;28;20213;-61
2022/06/26 02:01:28;;;;;;;14.27;6.83;;;14.10;99.90;;;;;;5049202;28;20583;-60
2022/06/26 02:03:56;;;;;;;12.40;7.17;;;14.10;99.90;;;;;;5045475;28;20197;-60
2022/06/26 02:06:24;;;;;;;9.73;6.97;;;14.10;99.90;;;;;;5047656;28;20215;-60
2022/06/26 02:08:53;;;;;;;14.30;7.27;;;14.10;99.90;;;;;;5048117;28;20631;-60
2022/06/26 02:14:09;;;;;;;12.33;6.73;;;14.10;99.90;;;;;;5049692;28;20288;-60
2022/06/26 02:16:38;;;;;;;11.60;6.47;;;14.10;99.90;;;;;;5050174;28;20220;-60
2022/06/26 02:19:06;;;;;;;11.93;6.40;;;14.10;99.90;;;;;;5046580;28;20208;-60
2022/06/26 02:21:38;;;;;;;15.73;6.80;;;14.10;99.90;;;;;;5048246;28;20207;-61
2022/06/26 02:24:08;;;;;;;10.83;6.30;;;14.10;99.90;;;;;;5046596;28;20211;-60
2022/06/26 02:26:37;;;;;;;11.73;6.43;;;14.10;99.90;;;;;;5051369;28;20193;-61
2022/06/26 02:29:05;;;;;;;10.50;6.67;;;14.10;99.90;;;;;;5049766;28;20268;-60
2022/06/26 02:31:35;;;;;;;8.87;7.20;;;14.10;99.90;;;;;;5050939;28;20195;-61
2022/06/26 02:34:03;;;;;;;11.80;7.47;;;14.10;99.90;;;;;;5042418;28;20201;-60
2022/06/26 02:36:31;;;;;;;12.80;7.73;;;14.10;99.90;;;;;;5051668;28;20201;-60
2022/06/26 02:39:00;;;;;;;12.23;7.27;;;14.00;99.90;;;;;;5049067;28;20220;-60
2022/06/26 02:41:29;;;;;;;15.00;7.63;;;14.00;99.90;;;;;;5048617;28;20244;-61
2022/06/26 02:43:57;;;;;;;9.77;7.57;;;14.00;99.90;;;;;;5049239;28;20277;-60
2022/06/26 02:46:25;;;;;;;15.50;7.70;;;14.00;99.90;;;;;;5039170;28;20572;-60
2022/06/26 02:48:56;;;;;;;9.23;7.23;;;14.00;99.90;;;;;;5040445;28;20239;-59
2022/06/26 02:51:24;;;;;;;10.37;7.07;;;14.00;99.90;;;;;;5046451;28;20315;-61
2022/06/26 02:53:53;;;;;;;11.13;7.70;;;14.00;99.90;;;;;;5050894;28;20196;-60
2022/06/26 02:56:21;;;;;;;17.43;8.23;;;14.00;99.90;;;;;;5063991;28;20623;-60
2022/06/26 02:58:49;;;;;;;15.63;8.33;;;14.00;99.90;;;;;;5050654;28;20220;-60
2022/06/26 03:01:17;;;;;;;12.77;7.87;;;14.00;99.90;;;;;;5049115;28;20650;-60
2022/06/26 03:03:46;;;;;;;10.27;7.73;;;14.00;99.90;;;;;;5049736;28;20215;-60
2022/06/26 03:06:16;;;;;;;14.93;8.07;;;14.10;99.90;;;;;;5050245;28;20216;-60
2022/06/26 03:08:44;;;;;;;14.80;7.43;;;14.10;99.90;;;;;;5051260;28;20189;-60
2022/06/26 03:11:13;;;;;;;10.53;7.97;;;14.10;99.90;;;;;;5048844;28;20200;-61
2022/06/26 03:13:41;;;;;;;14.87;7.97;;;14.10;99.90;;;;;;5052022;28;20644;-60
2022/06/26 03:16:09;;;;;;;15.77;7.83;;;14.10;99.90;;;;;;5062889;28;20295;-60
2022/06/26 03:18:38;;;;;;;10.43;7.87;;;14.10;99.90;;;;;;5045573;28;20219;-60
2022/06/26 03:21:07;;;;;;;13.23;7.70;;;14.10;99.90;;;;;;5048668;28;20201;-60
2022/06/26 03:26:22;;;;;;;11.20;7.13;;;14.10;99.90;;;;;;5049018;28;20189;-60
2022/06/26 03:28:50;;;;;;;10.53;6.70;;;14.00;99.90;;;;;;5048655;28;20280;-61
2022/06/26 03:31:19;;;;;;;14.27;7.63;;;14.00;99.90;;;;;;5042842;28;20280;-61
2022/06/26 03:33:47;;;;;;;13.20;7.33;;;14.00;99.90;;;;;;5047308;28;20330;-60
2022/06/26 03:36:16;;;;;;;9.80;7.20;;;14.00;99.90;;;;;;5080655;28;20254;-60
2022/06/26 03:38:46;;;;;;;13.87;7.60;;;14.00;99.90;;;;;;5045037;28;20209;-60
2022/06/26 03:41:14;;;;;;;15.97;7.80;;;14.00;99.90;;;;;;5048057;28;20197;-60
2022/06/26 03:43:42;;;;;;;12.90;7.37;;;13.90;99.90;;;;;;5047775;28;20197;-60
2022/06/26 03:46:11;;;;;;;12.37;7.10;;;13.90;99.90;;;;;;5041884;28;20197;-60
2022/06/26 03:48:42;;;;;;;12.23;7.07;;;13.90;99.90;;;;;;5044285;28;20751;-60
2022/06/26 03:51:10;;;;;;;10.20;6.63;;;13.90;99.90;;;;;;5048691;28;20232;-60
2022/06/26 03:53:41;;;;;;;14.60;7.40;;;14.00;99.90;;;;;;5046462;28;20193;-61
2022/06/26 03:56:11;;;;;;;12.47;6.73;;;13.90;99.90;;;;;;5048838;28;20254;-60
2022/06/26 03:58:39;;;;;;;10.20;7.23;;;13.90;99.90;;;;;;5048172;28;20235;-60
2022/06/26 04:01:08;;;;;;;15.13;7.23;;;13.90;99.90;;;;;;5045795;28;20205;-60
2022/06/26 04:03:36;;;;;;;9.40;6.77;;;13.80;99.90;;;;;;5049380;28;20652;-60
2022/06/26 04:06:05;;;;;;;12.37;7.00;;;13.80;99.90;;;;;;5080518;28;20223;-60
2022/06/26 04:08:34;;;;;;;7.07;6.37;;;13.80;99.90;;;;;;5044706;28;20679;-60
2022/06/26 04:11:02;;;;;;;13.17;7.00;;;13.80;99.90;;;;;;5043381;28;20283;-60
2022/06/26 04:13:32;;;;;;;11.70;6.97;;;13.80;99.90;;;;;;5079688;28;20189;-60
2022/06/26 04:16:00;;;;;;;12.83;6.97;;;13.80;99.90;;;;;;5048766;28;20197;-60
2022/06/26 04:18:29;;;;;;;11.57;7.10;;;13.90;99.90;;;;;;5047123;28;20254;-59
2022/06/26 04:20:57;;;;;;;15.27;6.97;;;13.90;99.90;;;;;;5078109;28;20220;-60
2022/06/26 04:23:26;;;;;;;14.23;7.43;;;14.00;99.90;;;;;;5039315;28;20271;-60
2022/06/26 04:25:55;;;;;;;11.50;6.90;;;14.00;99.90;;;;;;5047599;28;20192;-60
2022/06/26 04:28:23;;;;;;;9.43;6.40;;;14.00;99.90;;;;;;5048761;28;20219;-60
2022/06/26 04:30:53;;;;;;;13.30;6.47;;;14.10;99.90;;;;;;5046698;28;20216;-60
2022/06/26 04:33:22;;;;;;;10.47;6.53;;;14.10;99.90;;;;;;5046368;28;20201;-60
2022/06/26 04:35:50;;;;;;;13.23;6.90;;;14.10;99.90;;;;;;5048323;28;20573;-60
2022/06/26 04:38:21;;;;;;;9.43;6.57;;;14.20;99.90;;;;;;5043102;28;20583;-60
2022/06/26 04:40:50;;;;;;;18.63;7.53;;;14.20;99.90;;;;;;5046612;28;20216;-60
2022/06/26 04:43:18;;;;;;;8.57;6.40;;;14.20;99.90;;;;;;5046171;28;20880;-60
2022/06/26 04:45:47;;;;;;;10.13;6.50;;;14.30;99.90;;;;;;5042457;28;20228;-60
2022/06/26 04:48:17;;;;;;;14.17;6.63;;;14.30;99.90;;;;;;5046089;28;20822;-60
2022/06/26 04:50:46;;;;;;;13.57;6.40;;;14.30;99.90;;;;;;5043997;28;20291;-60
2022/06/26 04:53:15;;;;;;;10.57;6.57;;;14.30;99.90;;;;;;5046948;28;21578;-60
2022/06/26 04:55:43;;;;;;;11.53;6.57;;;14.40;99.90;;;;;;5047616;28;20220;-60
2022/06/26 04:58:12;;;;;;;15.33;6.20;;;14.40;99.90;;;;;;5047107;28;20288;-60
2022/06/26 05:00:40;;;;;;;13.50;6.80;;;14.40;99.90;;;;;;5045434;28;20228;-60
2022/06/26 05:03:09;;;;;;;13.47;6.27;;;14.40;99.90;;;;;;5045898;28;20294;-60
2022/06/26 05:05:41;;;;;;;12.57;5.90;;;14.40;99.90;;;;;;5077250;28;20200;-61
2022/06/26 05:08:09;;;;;;;8.23;5.83;;;14.40;99.90;;;;;;5046083;28;20221;-60
2022/06/26 05:10:38;;;;;;;11.13;6.07;;;14.40;99.90;;;;;;5042947;28;20194;-60
2022/06/26 05:13:06;;;;;;;9.43;5.63;;;14.40;99.90;;;;;;5076446;28;20193;-60
2022/06/26 05:15:35;;;;;;;13.23;6.00;;;14.40;99.90;;;;;;5049589;28;20274;-60
2022/06/26 05:18:03;;;;;;;11.00;5.90;;;14.50;99.90;;;;;;5049019;28;20204;-60
2022/06/26 05:20:32;;;;;;;9.53;5.73;;;14.50;99.90;;;;;;5048756;28;20299;-60
2022/06/26 05:23:04;;;;;;;11.77;5.90;;;14.50;99.90;;;;;;5051017;28;20200;-61
2022/06/26 05:25:32;;;;;;;8.73;5.90;;;14.60;99.90;;;;;;5052545;28;20201;-60
2022/06/26 05:28:01;;;;;;;9.97;5.53;;;14.60;99.90;;;;;;5050354;28;20207;-61
2022/06/26 05:30:29;;;;;;;11.33;5.60;;;14.60;99.90;;;;;;5051824;28;20200;-60
2022/06/26 05:32:58;;;;;;;7.33;5.50;;;14.70;99.90;;;;;;5049825;28;20207;-61
2022/06/26 05:35:26;;;;;;;15.30;5.83;;;14.70;99.90;;;;;;5051023;28;20196;-61
2022/06/26 05:37:55;;;;;;;9.63;5.83;;;14.80;99.90;;;;;;5049024;28;20201;-61
2022/06/26 05:40:25;;;;;;;8.03;5.10;;;14.80;99.90;;;;;;5049770;28;20822;-61
2022/06/26 05:42:55;;;;;;;18.27;5.70;;;14.80;99.90;;;;;;5049258;28;20284;-60
2022/06/26 05:45:23;;;;;;;10.20;5.30;;;15.00;99.90;;;;;;5051124;28;20279;-61
2022/06/26 05:47:51;;;;;;;9.37;5.43;;;15.00;99.90;;;;;;5048304;28;20280;-61
2022/06/26 05:50:21;;;;;;;11.23;5.70;;;15.10;99.90;;;;;;5047678;28;20299;-61
2022/06/26 05:52:50;;;;;;;13.23;5.13;;;15.20;99.90;;;;;;5048378;28;20201;-61
2022/06/26 05:55:19;;;;;;;15.77;5.73;;;15.40;99.90;;;;;;5050275;28;20224;-61
2022/06/26 05:57:49;;;;;;;5.73;4.50;;;15.40;99.90;;;;;;5048974;28;20204;-61
2022/06/26 06:00:17;;;;;;;11.50;5.20;;;15.40;99.90;;;;;;5039523;28;20583;-61
2022/06/26 06:02:46;;;;;;;8.77;4.67;;;15.50;99.90;;;;;;5048565;28;20276;-61
2022/06/26 06:05:14;;;;;;;6.57;4.80;;;15.60;99.90;;;;;;5049921;28;20260;-61
2022/06/26 06:07:43;;;;;;;9.53;4.57;;;15.60;99.90;;;;;;5048962;28;20213;-61
2022/06/26 06:10:11;;;;;;;6.90;4.40;;;15.60;99.90;;;;;;5048724;28;20209;-61
2022/06/26 06:12:40;;;;;;;5.20;4.40;;;15.60;99.90;;;;;;5080598;28;20199;-61
2022/06/26 06:15:11;;;;;;;7.23;4.47;;;15.70;99.90;;;;;;5050003;28;20280;-61
2022/06/26 06:17:41;;;;;;;10.50;5.10;;;15.70;99.90;;;;;;5050368;28;20337;-61
2022/06/26 06:20:12;;;;;;;8.63;4.47;;;15.70;99.90;;;;;;5050094;28;20234;-61
2022/06/26 06:22:41;;;;;;;9.13;4.97;;;15.80;99.90;;;;;;5079663;28;20197;-61
2022/06/26 06:25:11;;;;;;;7.63;4.40;;;15.70;99.90;;;;;;5050782;28;20589;-61
2022/06/26 06:27:45;;;;;;;6.57;4.50;;;15.70;99.90;;;;;;5050930;28;20213;-61
2022/06/26 06:30:16;;;;;;;9.20;4.80;;;15.70;99.90;;;;;;5049761;28;22357;-61
2022/06/26 06:32:45;;;;;;;7.33;5.10;;;15.60;99.90;;;;;;5051573;28;20223;-61
2022/06/26 06:35:15;;;;;;;9.30;4.80;;;15.60;99.90;;;;;;5051067;28;20845;-61
2022/06/26 06:37:44;;;;;;;9.80;4.80;;;15.70;99.90;;;;;;5051659;28;20530;-61
2022/06/26 06:40:14;;;;;;;5.47;4.90;;;15.60;99.90;;;;;;5049473;28;21009;-61
2022/06/26 06:42:46;;;;;;;9.40;4.93;;;15.60;99.90;;;;;;5051184;28;20540;-61
2022/06/26 06:45:16;;;;;;;5.60;4.80;;;15.60;99.90;;;;;;5049800;28;20281;-61
2022/06/26 06:47:47;;;;;;;5.40;4.90;;;15.60;99.90;;;;;;5052050;28;20579;-61
2022/06/26 06:50:15;;;;;;;7.63;4.50;;;15.50;99.90;;;;;;5048466;28;20252;-61
2022/06/26 06:52:48;;;;;;;9.63;4.70;;;15.50;99.90;;;;;;5051378;28;20267;-61
2022/06/26 06:55:16;;;;;;;8.03;5.00;;;15.60;99.90;;;;;;5048611;28;20207;-61
2022/06/26 06:57:45;;;;;;;5.40;4.90;;;15.60;99.90;;;;;;5050708;28;20201;-61
2022/06/26 07:00:13;;;;;;;8.20;5.10;;;15.60;99.90;;;;;;5046822;28;20214;-61
2022/06/26 07:02:43;;;;;;;13.30;5.37;;;15.60;99.90;;;;;;5050959;28;20283;-61
2022/06/26 07:05:12;;;;;;;6.93;5.40;;;15.70;99.90;;;;;;5050952;28;20279;-61
2022/06/26 07:07:40;;;;;;;10.17;4.53;;;15.80;99.90;;;;;;5049727;28;20227;-61
2022/06/26 07:10:09;;;;;;;10.37;4.90;;;15.90;99.90;;;;;;5048668;28;20204;-61
2022/06/26 07:12:38;;;;;;;10.07;4.83;;;16.10;99.90;;;;;;5046813;28;20207;-61
2022/06/26 07:15:08;;;;;;;6.93;4.80;;;16.40;99.90;;;;;;5050391;28;20209;-61
2022/06/26 07:17:36;;;;;;;11.10;5.03;;;16.60;99.90;;;;;;5048943;28;20281;-61
2022/06/26 07:20:08;;;;;;;9.37;4.87;;;16.60;99.90;;;;;;5048560;28;20284;-61
2022/06/26 07:22:37;;;;;;;10.53;5.03;;;16.70;99.90;;;;;;5047116;28;20284;-61
2022/06/26 07:25:06;;;;;;;11.37;4.77;;;16.70;99.90;;;;;;5049738;28;20314;-61
2022/06/26 07:27:35;;;;;;;11.60;4.50;;;16.90;99.90;;;;;;5046560;28;20586;-61
2022/06/26 07:30:08;;;;;;;7.80;4.63;;;17.00;99.90;;;;;;5045415;28;20692;-61
2022/06/26 07:32:36;;;;;;;9.97;4.40;;;17.00;99.90;;;;;;5047916;28;20268;-61
2022/06/26 07:35:07;;;;;;;5.40;4.43;;;17.00;99.90;;;;;;5053793;28;20207;-61
2022/06/26 07:37:37;;;;;;;6.37;4.77;;;16.90;99.90;;;;;;5047340;28;20712;-61
2022/06/26 07:40:08;;;;;;;5.30;4.50;;;16.90;99.90;;;;;;5046897;28;20211;-61
2022/06/26 07:42:36;;;;;;;12.80;4.80;;;17.00;99.90;;;;;;5046070;28;20298;-61
2022/06/26 07:45:05;;;;;;;8.57;5.00;;;17.00;99.90;;;;;;5047241;28;20240;-61
2022/06/26 07:47:34;;;;;;;8.07;4.80;;;17.10;99.90;;;;;;5050508;28;20322;-61
2022/06/26 07:50:03;;;;;;;7.00;4.60;;;17.40;99.90;;;;;;5042192;28;20228;-61
2022/06/26 07:52:32;;;;;;;5.80;4.50;;;17.50;99.90;;;;;;5045919;28;20253;-61
2022/06/26 07:55:01;;;;;;;6.67;5.17;;;17.50;99.90;;;;;;5044870;28;20211;-61
2022/06/26 07:57:32;;;;;;;8.30;5.20;;;17.50;99.90;;;;;;5047467;28;20214;-61
2022/06/26 08:00:01;;;;;;;7.70;5.00;;;17.50;99.90;;;;;;5047828;28;20200;-61
2022/06/26 08:02:29;;;;;;;8.23;4.53;;;17.50;99.90;;;;;;5041871;28;20223;-61
2022/06/26 08:04:58;;;;;;;7.50;4.57;;;17.50;99.90;;;;;;5061423;28;20201;-61
2022/06/26 08:07:26;;;;;;;6.73;4.87;;;17.50;99.90;;;;;;5047877;28;20259;-61
2022/06/26 08:09:57;;;;;;;13.27;5.20;;;17.60;99.90;;;;;;5048442;28;20210;-61
2022/06/26 08:12:26;;;;;;;9.37;4.90;;;17.60;99.90;;;;;;5045202;28;20200;-61
2022/06/26 08:14:54;;;;;;;5.73;4.20;;;17.70;99.90;;;;;;5073793;28;20203;-61
2022/06/26 08:17:23;;;;;;;5.83;4.37;;;17.70;99.90;;;;;;5077495;28;20218;-61
2022/06/26 08:19:52;;;;;;;7.93;4.33;;;17.80;99.90;;;;;;5043963;28;20188;-61
2022/06/26 08:22:20;;;;;;;10.60;4.50;;;17.90;99.90;;;;;;5043208;28;20958;-61
2022/06/26 08:24:48;;;;;;;4.73;4.20;;;18.00;99.90;;;;;;5049051;28;20576;-61
2022/06/26 08:27:18;;;;;;;8.43;4.47;;;18.10;99.90;;;;;;5043033;28;20668;-61
2022/06/26 08:29:47;;;;;;;7.27;4.33;;;18.10;99.90;;;;;;5045675;28;20697;-61
2022/06/26 08:32:15;;;;;;;6.43;3.73;;;18.20;99.90;;;;;;5077949;28;20189;-61
2022/06/26 08:34:44;;;;;;;9.60;3.60;;;18.30;99.90;;;;;;5076330;28;20196;-61
2022/06/26 08:37:12;;;;;;;5.77;3.97;;;18.40;99.90;;;;;;5040150;28;20193;-61
2022/06/26 08:39:41;;;;;;;5.20;3.93;;;18.40;99.90;;;;;;5043363;28;20196;-61
2022/06/26 08:42:09;;;;;;;4.37;3.60;;;18.40;99.90;;;;;;5039650;28;20216;-61
2022/06/26 08:44:43;;;;;;;11.17;3.67;;;18.60;99.90;;;;;;5049272;28;20556;-61
2022/06/26 08:47:13;;;;;;;6.93;3.43;;;18.50;99.90;;;;;;5047688;28;20210;-61
2022/06/26 08:49:42;;;;;;;7.00;3.40;;;18.60;99.90;;;;;;5082114;28;20323;-61
2022/06/26 08:52:13;;;;;;;3.93;3.63;;;18.70;99.90;;;;;;5045969;28;20281;-61
2022/06/26 08:54:42;;;;;;;4.67;3.70;;;18.90;99.90;;;;;;5044358;28;20593;-61
2022/06/26 08:57:13;;;;;;;4.43;3.60;;;18.90;99.90;;;;;;5042743;28;20209;-61
2022/06/26 08:59:43;;;;;;;5.63;3.53;;;18.90;99.90;;;;;;5052288;28;20283;-61
2022/06/26 09:02:12;;;;;;;6.73;3.70;;;18.90;99.90;;;;;;5049842;28;20224;-61
2022/06/26 09:04:40;;;;;;;7.07;3.50;;;19.10;99.90;;;;;;5051318;28;20200;-61
2022/06/26 09:07:10;;;;;;;6.07;3.30;;;19.30;99.90;;;;;;5054582;28;20223;-61
2022/06/26 09:09:40;;;;;;;6.40;3.30;;;19.20;99.90;;;;;;5084731;28;20673;-61
2022/06/26 09:12:10;;;;;;;4.67;2.87;;;19.30;99.90;;;;;;5051280;28;20201;-61
2022/06/26 09:14:39;;;;;;;3.90;3.13;;;19.40;99.90;;;;;;5052012;28;20258;-60
2022/06/26 09:17:09;;;;;;;4.77;3.00;;;19.50;99.90;;;;;;5052539;28;20200;-61
2022/06/26 09:19:44;;;;;;;6.30;3.10;;;19.40;99.90;;;;;;5052983;28;20254;-60
2022/06/26 09:22:14;;;;;;;4.50;2.97;;;19.50;99.90;;;;;;5047731;28;20212;-60
2022/06/26 09:24:54;;;;;;;8.10;2.93;;;19.40;99.90;;;;;;5046321;28;20234;-60
2022/06/26 09:27:22;;;;;;;5.90;2.87;;;19.50;99.90;;;;;;5043479;28;20770;-60
2022/06/26 09:29:52;;;;;;;7.30;2.70;;;19.60;99.90;;;;;;5049492;28;21036;-61
2022/06/26 09:32:24;;;;;;;2.77;2.43;;;19.40;99.90;;;;;;5047855;28;20829;-60
2022/06/26 09:34:54;;;;;;;3.40;3.13;;;19.50;99.90;;;;;;5048967;28;20193;-60
2022/06/26 09:37:24;;;;;;;8.90;3.40;;;19.50;99.90;;;;;;5047192;28;20605;-60
2022/06/26 09:40:16;;;;;;;4.33;2.40;;;19.50;99.90;;;;;;5050325;28;20193;-60
2022/06/26 09:42:45;;;;;;;4.60;2.30;;;19.50;99.90;;;;;;5050291;28;20259;-60
2022/06/26 09:45:13;;;;;;;3.30;3.00;;;19.50;99.90;;;;;;5049116;28;20193;-61
2022/06/26 09:47:45;;;;;;;5.33;3.03;;;19.60;99.90;;;;;;5049330;28;20203;-61
2022/06/26 09:50:13;;;;;;;6.70;2.83;;;19.70;99.90;;;;;;5047967;28;20263;-60
2022/06/26 09:52:43;;;;;;;3.90;2.93;;;19.90;99.90;;;;;;5048156;28;20211;-60
2022/06/26 09:55:12;;;;;;;6.13;2.80;;;19.80;99.90;;;;;;5053532;28;20217;-61
2022/06/26 09:57:44;;;;;;;4.33;2.77;;;19.80;99.90;;;;;;5052332;28;20433;-61
2022/06/26 10:00:12;;;;;;;9.93;3.13;;;19.80;99.90;;;;;;5047541;28;20192;-60
2022/06/26 10:08:22;;;;;;;8.20;2.50;;;19.80;99.90;;;;;;5050278;28;20207;-60
2022/06/26 10:10:51;;;;;;;6.33;2.37;;;19.80;99.90;;;;;;5047892;28;20223;-61
2022/06/26 10:13:28;;;;;;;12.63;3.00;;;19.90;99.90;;;;;;5048825;28;20664;-61
2022/06/26 10:16:05;;;;;;;5.50;2.50;;;19.90;99.90;;;;;;5049154;28;20193;-61
2022/06/26 10:18:47;;;;;;;4.57;2.77;;;19.90;99.90;;;;;;5048915;28;20205;-61
2022/06/26 10:21:15;;;;;;;4.83;2.80;;;19.90;99.90;;;;;;5080627;28;20287;-61
2022/06/26 10:23:44;;;;;;;3.37;2.40;;;20.10;99.90;;;;;;5084685;28;20324;-61
2022/06/26 10:26:18;;;;;;;3.93;2.67;;;20.20;99.90;;;;;;5049048;28;20221;-61
2022/06/26 10:28:57;;;;;;;5.53;2.40;;;20.20;99.90;;;;;;5050901;28;20197;-60
2022/06/26 10:31:26;;;;;;;4.80;2.27;;;20.40;99.90;;;;;;5051067;28;20692;-61
2022/06/26 10:33:56;;;;;;;4.63;2.63;;;20.50;99.90;;;;;;5050541;28;20201;-61
2022/06/26 10:36:25;;;;;;;6.60;2.40;;;20.50;99.90;;;;;;5048805;28;20276;-61
2022/06/26 10:39:04;;;;;;;1.90;1.80;;;20.50;99.90;;;;;;5051369;28;20208;-61
2022/06/26 10:44:34;;;;;;;8.80;2.73;;;20.60;99.90;;;;;;5049767;28;20258;-61
2022/06/26 10:47:14;;;;;;;8.03;2.60;;;20.50;99.90;;;;;;5046661;28;20209;-61
2022/06/26 10:49:52;;;;;;;3.77;1.80;;;20.60;99.90;;;;;;5044846;28;20233;-61
2022/06/26 10:52:28;;;;;;;4.30;2.27;;;20.60;99.90;;;;;;5044843;28;20231;-61
2022/06/26 10:54:59;;;;;;;3.00;2.10;;;20.60;99.90;;;;;;5041476;28;20625;-61
2022/06/26 10:57:36;;;;;;;2.40;2.20;;;20.50;99.90;;;;;;5044261;28;20562;-61
2022/06/26 11:00:06;;;;;;;4.93;2.30;;;20.50;99.90;;;;;;5046861;28;20212;-61
2022/06/26 11:02:37;;;;;;;2.97;2.10;;;20.50;99.90;;;;;;5050726;28;20646;-61
2022/06/26 11:05:10;;;;;;;3.97;2.00;;;20.70;99.90;;;;;;5048523;28;20204;-61
2022/06/26 11:07:43;;;;;;;4.33;2.20;;;21.10;99.90;;;;;;5078769;28;20244;-61
2022/06/26 11:10:14;;;;;;;8.93;2.30;;;21.40;99.90;;;;;;5047616;28;20255;-61
2022/06/26 11:12:44;;;;;;;3.60;2.00;;;21.90;99.90;;;;;;5060256;28;20617;-61
2022/06/26 11:15:24;;;;;;;3.00;1.90;;;22.20;99.90;;;;;;5048469;28;20198;-61
2022/06/26 11:17:54;;;;;;;5.87;2.10;;;22.20;99.90;;;;;;5050093;28;20724;-61
2022/06/26 11:23:21;;;;;;;2.83;2.30;;;22.20;99.90;;;;;;5049099;28;20218;-60
2022/06/26 11:25:51;;;;;;;4.20;2.27;;;22.30;99.90;;;;;;5073633;28;20291;-61
2022/06/26 11:28:19;;;;;;;4.60;2.47;;;22.30;99.90;;;;;;5043988;28;20660;-61
2022/06/26 11:30:49;;;;;;;3.03;2.20;;;21.90;99.90;;;;;;5046854;28;20208;-61
2022/06/26 11:33:26;;;;;;;5.27;2.57;;;21.80;99.90;;;;;;5063888;28;20214;-61
2022/06/26 11:35:56;;;;;;;3.23;2.27;;;21.70;99.90;;;;;;5043713;28;20197;-61
2022/06/26 11:38:25;;;;;;;5.23;2.20;;;21.70;99.90;;;;;;5043736;28;20294;-60
2022/06/26 11:40:58;;;;;;;2.83;2.00;;;21.70;99.90;;;;;;5044587;28;20287;-61
2022/06/26 11:43:26;;;;;;;7.97;2.33;;;21.70;99.90;;;;;;5077271;28;20706;-61
2022/06/26 11:45:57;;;;;;;2.57;2.10;;;21.70;99.90;;;;;;5078555;28;20273;-61
2022/06/26 11:48:26;;;;;;;3.23;2.20;;;21.70;99.90;;;;;;5045622;28;20192;-61
2022/06/26 11:50:57;;;;;;;2.23;1.97;;;21.70;99.90;;;;;;5081210;28;20619;-61
2022/06/26 11:53:28;;;;;;;4.07;2.00;;;21.80;99.90;;;;;;5045498;28;20204;-61
2022/06/26 11:55:59;;;;;;;2.83;1.93;;;21.70;99.90;;;;;;5048329;28;20548;-61
2022/06/26 11:58:29;;;;;;;4.40;2.13;;;21.70;99.90;;;;;;5048136;28;20555;-61
2022/06/26 12:01:06;;;;;;;5.73;2.40;;;21.80;99.90;;;;;;5043044;28;20629;-61
2022/06/26 12:03:35;;;;;;;6.27;2.10;;;22.20;99.90;;;;;;5048906;28;20241;-61
2022/06/26 12:06:05;;;;;;;4.27;2.00;;;22.40;99.90;;;;;;5042783;28;20713;-61
2022/06/26 12:08:34;;;;;;;2.40;2.10;;;22.50;99.90;;;;;;5049369;28;20190;-61
2022/06/26 12:11:03;;;;;;;7.87;2.40;;;22.50;99.90;;;;;;5058314;28;20270;-61
2022/06/26 12:13:33;;;;;;;6.13;2.37;;;22.50;99.90;;;;;;5047002;28;20197;-60
2022/06/26 12:16:04;;;;;;;8.77;2.40;;;22.50;99.90;;;;;;5063436;28;20208;-60
2022/06/26 12:18:34;;;;;;;3.77;2.07;;;22.50;99.90;;;;;;5046102;28;21413;-60
2022/06/26 12:21:14;;;;;;;2.00;1.90;;;22.20;99.90;;;;;;5043698;28;20212;-60
2022/06/26 12:23:44;;;;;;;5.10;1.93;;;22.00;99.90;;;;;;5045281;28;20221;-60
2022/06/26 12:26:16;;;;;;;7.77;2.30;;;22.00;99.90;;;;;;5047755;28;20276;-60
2022/06/26 12:28:50;;;;;;;4.43;2.00;;;22.20;99.90;;;;;;5045370;28;20621;-60
2022/06/26 12:31:22;;;;;;;5.77;2.00;;;22.30;99.90;;;;;;5047258;28;20204;-61
2022/06/26 12:33:50;;;;;;;5.30;2.20;;;22.30;99.90;;;;;;5046193;28;20211;-61
2022/06/26 12:36:20;;;;;;;4.07;1.90;;;22.30;99.90;;;;;;5042501;28;20198;-60
2022/06/26 12:38:48;;;;;;;4.20;1.87;;;22.30;99.90;;;;;;5049994;28;20957;-60
2022/06/26 12:41:17;;;;;;;1.93;1.80;;;22.40;99.90;;;;;;5046318;28;20196;-61
2022/06/26 12:43:47;;;;;;;2.23;1.97;;;22.70;99.90;;;;;;5046119;28;20278;-61
2022/06/26 12:46:23;;;;;;;3.70;1.90;;;23.00;99.90;;;;;;5048720;28;20204;-61
2022/06/26 12:48:52;;;;;;;3.57;1.63;;;23.00;99.90;;;;;;5050487;28;20419;-61
2022/06/26 12:51:22;;;;;;;4.57;1.97;;;23.10;99.90;;;;;;5050423;28;20194;-60
2022/06/26 12:53:55;;;;;;;6.63;1.90;;;23.10;99.90;;;;;;5042853;28;20206;-61
2022/06/26 12:56:23;;;;;;;3.60;1.97;;;22.70;99.90;;;;;;5059120;28;20200;-60
2022/06/26 12:58:51;;;;;;;5.30;1.90;;;22.40;99.90;;;;;;5051372;28;20512;-61
2022/06/26 13:01:20;;;;;;;5.23;1.80;;;22.20;99.90;;;;;;5049712;28;20193;-60
2022/06/26 13:03:56;;;;;;;4.73;1.73;;;22.10;99.90;;;;;;5056626;28;20207;-60
2022/06/26 13:06:26;;;;;;;3.07;1.63;;;22.10;99.90;;;;;;5047772;28;20302;-61
2022/06/26 13:08:54;;;;;;;1.90;1.70;;;22.30;99.90;;;;;;5050440;28;20201;-61
2022/06/26 13:11:27;;;;;;;3.93;1.77;;;22.60;99.90;;;;;;5047574;28;20291;-61
2022/06/26 13:13:56;;;;;;;2.30;1.67;;;22.90;99.90;;;;;;5053396;28;20262;-59